Time;durP1;ratioP1;P1;durP2;ratioP2;P2;SDS_P1;SDS_P2;PMS_P1;PMS_P2;Temp;Humidity;BMP_temperature;BMP_pressure;BME280_temperature;BME280_humidity;BME280_pressure;Samples;Min_cycle;Max_cycle;Signal;HPM_P1;HPM_P2
2021/05/28 00:01:54;;;;;;;17.00;10.80;;;;;;;7.09;100.00;101805.59;4961590;28;20039;-81
2021/05/28 00:04:20;;;;;;;15.95;10.00;;;;;;;7.03;100.00;101814.06;4982612;28;20085;-83
2021/05/28 00:06:46;;;;;;;20.08;11.60;;;;;;;6.99;100.00;101814.28;4958440;28;20134;-80
2021/05/28 00:09:12;;;;;;;15.18;10.60;;;;;;;6.95;100.00;101815.47;4955392;28;20053;-81
2021/05/28 00:11:39;;;;;;;18.35;11.05;;;;;;;6.83;100.00;101824.41;4972932;28;20070;-81
2021/05/28 00:14:05;;;;;;;21.95;13.73;;;;;;;6.97;100.00;101816.22;4977596;28;20040;-82
2021/05/28 00:16:31;;;;;;;19.33;11.70;;;;;;;6.98;100.00;101823.25;4983877;28;20117;-80
2021/05/28 00:18:57;;;;;;;19.60;12.45;;;;;;;7.02;100.00;101818.56;4982172;28;20049;-82
2021/05/28 00:21:22;;;;;;;22.67;13.05;;;;;;;7.03;100.00;101822.06;4987405;28;20080;-83
2021/05/28 00:23:49;;;;;;;19.80;11.70;;;;;;;6.95;100.00;101815.47;4966895;28;20614;-81
2021/05/28 00:26:16;;;;;;;17.55;12.13;;;;;;;6.93;100.00;101822.78;4955629;28;20050;-83
2021/05/28 00:28:47;;;;;;;16.88;11.60;;;;;;;6.90;100.00;101817.63;4978863;28;20472;-83
2021/05/28 00:31:13;;;;;;;17.90;12.52;;;;;;;6.90;100.00;101825.66;4971501;28;20093;-79
2021/05/28 00:33:38;;;;;;;14.43;9.25;;;;;;;6.81;100.00;101831.69;4959566;28;20074;-80
2021/05/28 00:36:04;;;;;;;23.17;14.15;;;;;;;6.76;100.00;101833.81;4977667;28;20125;-80
2021/05/28 00:38:29;;;;;;;13.73;10.75;;;;;;;6.76;100.00;101836.50;4962951;28;20402;-82
2021/05/28 00:40:55;;;;;;;29.88;14.32;;;;;;;6.72;100.00;101835.88;4979642;28;20046;-83
2021/05/28 00:43:20;;;;;;;16.50;11.63;;;;;;;6.72;100.00;101835.03;4978754;28;20057;-81
2021/05/28 00:45:46;;;;;;;21.85;13.68;;;;;;;6.75;100.00;101837.47;4964078;28;20141;-80
2021/05/28 00:48:12;;;;;;;16.58;10.77;;;;;;;6.80;100.00;101838.00;4979019;28;20050;-80
2021/05/28 00:50:38;;;;;;;20.67;12.60;;;;;;;6.77;100.00;101835.53;4979188;28;20507;-79
2021/05/28 00:53:05;;;;;;;20.60;13.07;;;;;;;6.82;100.00;101840.53;4977844;28;20046;-83
2021/05/28 00:55:31;;;;;;;21.42;14.30;;;;;;;6.83;100.00;101835.09;4986224;28;20038;-81
2021/05/28 00:57:57;;;;;;;25.45;13.30;;;;;;;6.85;100.00;101842.97;4979201;28;20049;-80
2021/05/28 01:00:27;;;;;;;20.52;12.98;;;;;;;6.87;100.00;101839.22;4963549;28;20046;-85
2021/05/28 01:02:54;;;;;;;24.42;14.00;;;;;;;6.91;100.00;101835.38;4978730;28;20101;-84
2021/05/28 01:05:20;;;;;;;22.48;12.50;;;;;;;6.88;100.00;101840.94;4971561;28;20495;-81
2021/05/28 01:07:46;;;;;;;27.00;14.77;;;;;;;6.91;100.00;101845.19;4959918;28;20053;-81
2021/05/28 01:10:13;;;;;;;25.17;13.73;;;;;;;6.85;100.00;101854.50;4960116;28;20034;-79
2021/05/28 01:12:39;;;;;;;27.13;12.40;;;;;;;6.77;100.00;101847.06;4975992;28;20038;-81
2021/05/28 01:15:06;;;;;;;25.55;13.93;;;;;;;6.79;100.00;101849.63;4980053;28;20101;-83
2021/05/28 01:17:33;;;;;;;26.70;13.60;;;;;;;6.80;100.00;101859.31;4978297;28;20038;-79
2021/05/28 01:20:01;;;;;;;22.83;14.45;;;;;;;6.81;100.00;101865.50;4967805;28;20054;-81
2021/05/28 01:22:29;;;;;;;26.92;15.02;;;;;;;6.76;100.00;101864.06;4976322;28;20434;-81
2021/05/28 01:24:54;;;;;;;26.70;15.50;;;;;;;6.77;100.00;101864.91;4986455;28;20137;-85
2021/05/28 01:27:20;;;;;;;22.23;14.05;;;;;;;6.73;100.00;101863.41;4970972;28;20482;-82
2021/05/28 01:29:46;;;;;;;21.88;14.57;;;;;;;6.77;100.00;101870.22;4974224;28;20056;-81
2021/05/28 01:32:12;;;;;;;26.40;15.65;;;;;;;6.72;100.00;101861.72;4989971;28;20176;-82
2021/05/28 01:34:37;;;;;;;32.17;16.13;;;;;;;6.69;100.00;101859.28;4981741;28;20133;-84
2021/05/28 01:37:03;;;;;;;26.63;16.02;;;;;;;6.67;100.00;101861.19;4971262;28;20129;-84
2021/05/28 01:39:30;;;;;;;25.17;15.63;;;;;;;6.65;100.00;101864.00;4983561;28;20046;-83
2021/05/28 01:41:55;;;;;;;27.65;15.98;;;;;;;6.63;100.00;101867.72;4978674;28;20666;-85
2021/05/28 01:44:21;;;;;;;29.42;18.20;;;;;;;6.64;100.00;101864.09;4984998;28;20101;-81
2021/05/28 01:46:48;;;;;;;29.75;19.08;;;;;;;6.64;100.00;101864.94;4982545;28;20129;-81
2021/05/28 01:49:15;;;;;;;36.33;21.48;;;;;;;6.71;100.00;101868.03;4967900;28;20053;-82
2021/05/28 01:51:51;;;;;;;45.22;25.90;;;;;;;6.75;100.00;101872.16;4963257;28;20046;-85
2021/05/28 01:54:18;;;;;;;47.72;27.35;;;;;;;6.79;100.00;101868.31;4980821;28;20074;-81
2021/05/28 01:56:46;;;;;;;51.03;28.38;;;;;;;6.83;100.00;101863.59;4981333;28;20042;-79
2021/05/28 01:59:30;;;;;;;49.45;29.73;;;;;;;6.85;100.00;101862.50;4967734;28;20041;-80
2021/05/28 02:01:56;;;;;;;55.15;30.05;;;;;;;6.87;100.00;101871.22;4983339;28;20038;-82
2021/05/28 02:04:24;;;;;;;58.83;32.42;;;;;;;6.91;100.00;101875.41;4980333;28;20538;-80
2021/05/28 02:06:51;;;;;;;53.10;30.40;;;;;;;6.93;100.00;101865.47;4973626;28;20120;-80
2021/05/28 02:09:17;;;;;;;56.88;31.35;;;;;;;6.94;100.00;101867.16;4979158;28;20050;-79
2021/05/28 02:11:44;;;;;;;53.97;31.33;;;;;;;6.95;100.00;101860.84;4961397;28;20038;-80
2021/05/28 02:14:10;;;;;;;64.22;32.22;;;;;;;6.97;100.00;101858.06;4966033;28;20050;-83
2021/05/28 02:16:37;;;;;;;56.55;32.08;;;;;;;6.98;100.00;101862.44;4980237;28;20085;-85
2021/05/28 02:19:05;;;;;;;63.00;33.33;;;;;;;7.04;100.00;101872.66;4968182;28;20046;-80
2021/05/28 02:21:32;;;;;;;57.90;31.63;;;;;;;7.06;100.00;101864.53;4980584;28;20042;-82
2021/05/28 02:23:57;;;;;;;54.60;30.60;;;;;;;7.04;100.00;101864.66;4968472;28;20054;-86
2021/05/28 02:26:24;;;;;;;58.60;31.83;;;;;;;7.08;100.00;101867.94;4952434;28;20052;-81
2021/05/28 02:28:50;;;;;;;61.35;32.17;;;;;;;7.05;100.00;101869.03;4977221;28;20519;-82
2021/05/28 02:31:16;;;;;;;54.95;31.80;;;;;;;7.09;100.00;101859.81;4951819;28;20853;-81
2021/05/28 02:33:42;;;;;;;57.00;31.02;;;;;;;7.12;100.00;101869.41;4974116;28;20049;-82
2021/05/28 02:36:09;;;;;;;60.45;31.75;;;;;;;7.12;100.00;101864.06;4966893;28;20050;-80
2021/05/28 02:38:38;;;;;;;63.40;33.53;;;;;;;7.11;100.00;101873.06;4973568;28;20093;-81
2021/05/28 02:41:03;;;;;;;58.53;33.85;;;;;;;7.15;100.00;101869.19;4967783;28;20483;-82
2021/05/28 02:43:29;;;;;;;59.80;32.55;;;;;;;7.14;100.00;101876.34;4981525;28;20113;-82
2021/05/28 02:45:54;;;;;;;67.90;32.50;;;;;;;7.17;100.00;101875.25;4960601;28;20039;-81
2021/05/28 02:48:20;;;;;;;64.93;33.08;;;;;;;7.15;100.00;101877.19;4981030;28;20094;-82
2021/05/28 02:50:47;;;;;;;67.05;32.95;;;;;;;7.14;100.00;101875.50;4983112;28;20042;-81
2021/05/28 02:53:13;;;;;;;62.72;33.38;;;;;;;7.15;100.00;101874.53;4983282;28;20125;-83
2021/05/28 02:55:38;;;;;;;70.50;34.03;;;;;;;7.14;100.00;101872.84;4981010;28;20121;-80
2021/05/28 02:58:05;;;;;;;63.60;35.47;;;;;;;7.18;100.00;101869.78;4980743;28;20030;-81
2021/05/28 03:00:30;;;;;;;60.58;31.02;;;;;;;7.21;100.00;101872.22;4977403;28;20057;-79
2021/05/28 03:02:57;;;;;;;58.40;31.70;;;;;;;7.21;100.00;101876.72;4981931;28;20126;-83
2021/05/28 03:05:23;;;;;;;63.42;31.13;;;;;;;7.17;100.00;101872.59;4985040;28;20042;-79
2021/05/28 03:07:48;;;;;;;62.53;33.08;;;;;;;7.14;100.00;101873.69;4986451;28;20603;-79
2021/05/28 03:10:14;;;;;;;64.68;32.72;;;;;;;7.14;100.00;101883.50;4953021;28;20101;-80
2021/05/28 03:12:39;;;;;;;53.88;29.85;;;;;;;7.14;100.00;101878.16;4968865;28;20038;-79
2021/05/28 03:15:06;;;;;;;64.40;32.65;;;;;;;7.12;100.00;101875.59;4980233;28;20133;-83
2021/05/28 03:17:32;;;;;;;64.30;34.35;;;;;;;7.03;100.00;101875.44;4976803;28;20049;-79
2021/05/28 03:19:58;;;;;;;63.75;32.65;;;;;;;6.97;100.00;101880.28;4983297;28;20046;-81
2021/05/28 03:22:31;;;;;;;56.85;30.35;;;;;;;7.05;100.00;101878.84;4979286;28;20199;-81
2021/05/28 03:24:57;;;;;;;62.75;31.88;;;;;;;6.95;100.00;101878.69;4978080;28;20054;-82
2021/05/28 03:27:22;;;;;;;66.18;34.10;;;;;;;7.00;100.00;101889.88;4982555;28;20049;-78
2021/05/28 03:29:48;;;;;;;66.38;34.38;;;;;;;7.09;100.00;101883.00;4980279;28;20042;-81
2021/05/28 03:32:13;;;;;;;67.57;34.00;;;;;;;7.11;100.00;101883.75;4984016;28;20109;-82
2021/05/28 03:34:41;;;;;;;67.45;34.72;;;;;;;7.01;100.00;101886.22;4971242;28;20046;-85
2021/05/28 03:37:06;;;;;;;71.82;36.20;;;;;;;7.08;100.00;101890.16;4939468;28;20380;-81
2021/05/28 03:39:34;;;;;;;73.30;36.60;;;;;;;7.03;100.00;101897.66;4980080;28;20069;-80
2021/05/28 03:42:02;;;;;;;72.25;35.08;;;;;;;7.06;100.00;101899.25;4964711;28;20376;-81
2021/05/28 03:44:29;;;;;;;85.47;38.88;;;;;;;7.09;100.00;101907.03;4981758;28;20042;-78
2021/05/28 03:46:55;;;;;;;70.10;36.58;;;;;;;7.07;100.00;101903.59;4981711;28;20442;-81
2021/05/28 03:49:20;;;;;;;82.38;38.83;;;;;;;7.05;100.00;101908.19;4986811;28;20050;-80
2021/05/28 03:51:46;;;;;;;79.20;36.92;;;;;;;7.03;100.00;101918.16;4983214;28;20053;-80
2021/05/28 03:54:11;;;;;;;80.72;37.42;;;;;;;7.06;100.00;101917.91;4968826;28;20050;-82
2021/05/28 03:56:37;;;;;;;81.57;36.95;;;;;;;7.01;100.00;101918.25;4966029;28;20027;-82
2021/05/28 03:59:02;;;;;;;81.25;36.28;;;;;;;6.96;100.00;101923.94;4976766;28;20037;-79
2021/05/28 04:01:28;;;;;;;67.07;34.30;;;;;;;6.92;100.00;101925.13;4973778;28;20052;-80
2021/05/28 04:03:53;;;;;;;74.72;36.67;;;;;;;6.94;100.00;101919.69;4964033;28;20057;-84
2021/05/28 04:06:19;;;;;;;84.95;37.83;;;;;;;6.97;100.00;101920.31;4985159;28;20060;-80
2021/05/28 04:08:44;;;;;;;86.53;39.08;;;;;;;7.05;100.00;101922.41;4978109;28;20548;-80
2021/05/28 04:11:10;;;;;;;72.47;35.90;;;;;;;6.95;100.00;101918.72;4982952;28;20050;-79
2021/05/28 04:13:35;;;;;;;74.70;37.50;;;;;;;6.99;100.00;101923.72;4949848;28;20042;-82
2021/05/28 04:16:01;;;;;;;70.68;35.53;;;;;;;7.06;100.00;101929.44;4951483;28;20034;-82
2021/05/28 04:18:28;;;;;;;68.75;34.55;;;;;;;7.03;100.00;101939.50;4970635;28;20415;-80
2021/05/28 04:20:53;;;;;;;68.13;36.13;;;;;;;6.95;100.00;101937.38;4981369;28;20042;-81
2021/05/28 04:23:19;;;;;;;68.57;33.53;;;;;;;6.97;100.00;101936.31;4981173;28;20503;-79
2021/05/28 04:25:46;;;;;;;69.00;34.58;;;;;;;6.98;100.00;101943.34;4978937;28;20054;-78
2021/05/28 04:28:12;;;;;;;59.40;33.15;;;;;;;6.98;100.00;101951.34;4966445;28;20061;-83
2021/05/28 04:30:37;;;;;;;63.58;32.30;;;;;;;6.92;100.00;101943.81;4981062;28;20042;-83
2021/05/28 04:33:03;;;;;;;63.40;33.28;;;;;;;6.97;100.00;101947.00;4950301;28;20050;-80
2021/05/28 04:35:31;;;;;;;57.13;30.95;;;;;;;6.97;100.00;101944.31;4966111;28;20072;-81
2021/05/28 04:37:56;;;;;;;62.95;33.30;;;;;;;6.96;100.00;101949.75;4982393;28;20065;-83
2021/05/28 04:40:22;;;;;;;61.67;31.50;;;;;;;6.98;100.00;101953.19;4978215;28;20047;-81
2021/05/28 04:42:47;;;;;;;66.60;34.55;;;;;;;6.95;100.00;101948.91;4985158;28;20045;-80
2021/05/28 04:45:13;;;;;;;66.28;35.15;;;;;;;6.98;100.00;101946.00;4953440;28;20181;-82
2021/05/28 04:47:38;;;;;;;68.25;33.33;;;;;;;6.93;100.00;101966.88;4949444;28;20038;-82
2021/05/28 04:50:05;;;;;;;62.00;34.58;;;;;;;6.98;100.00;101959.34;4967331;28;20513;-80
2021/05/28 04:52:30;;;;;;;58.88;32.05;;;;;;;6.97;100.00;101957.66;4983588;28;20144;-81
2021/05/28 04:54:56;;;;;;;58.88;30.65;;;;;;;6.97;100.00;101970.16;4969141;28;20475;-82
2021/05/28 04:57:21;;;;;;;57.90;30.27;;;;;;;6.90;100.00;101968.88;4980932;28;20329;-81
2021/05/28 04:59:47;;;;;;;61.08;31.60;;;;;;;6.92;100.00;101970.50;4977385;28;20499;-82
2021/05/28 05:02:13;;;;;;;55.13;31.33;;;;;;;6.90;100.00;101969.75;4960551;28;20053;-80
2021/05/28 05:04:39;;;;;;;60.75;31.63;;;;;;;6.94;100.00;101973.91;4981372;28;20046;-85
2021/05/28 05:07:08;;;;;;;59.67;31.75;;;;;;;7.06;100.00;101971.31;4975406;28;20043;-78
2021/05/28 05:09:34;;;;;;;58.08;31.98;;;;;;;6.97;100.00;101979.00;4961474;28;20042;-83
2021/05/28 05:11:59;;;;;;;58.88;33.78;;;;;;;7.02;100.00;101981.38;4971161;28;20050;-79
2021/05/28 05:14:26;;;;;;;57.08;32.78;;;;;;;7.10;100.00;101978.97;4973239;28;20046;-81
2021/05/28 05:16:52;;;;;;;69.03;35.75;;;;;;;7.19;100.00;101980.09;4959251;28;20368;-80
2021/05/28 05:19:18;;;;;;;60.85;32.17;;;;;;;7.17;100.00;101979.38;4963115;28;20636;-80
2021/05/28 05:21:44;;;;;;;65.20;34.40;;;;;;;7.17;100.00;101979.38;4975657;28;20441;-83
2021/05/28 05:24:10;;;;;;;56.47;30.60;;;;;;;7.12;100.00;101981.53;4977129;28;20061;-79
2021/05/28 05:26:36;;;;;;;58.38;32.30;;;;;;;7.14;100.00;101984.94;4976994;28;20141;-81
2021/05/28 05:29:02;;;;;;;61.80;34.13;;;;;;;7.19;100.00;101983.66;4970213;28;20150;-82
2021/05/28 05:31:30;;;;;;;49.95;30.40;;;;;;;7.05;100.00;101993.59;4982727;28;20450;-77
2021/05/28 05:33:55;;;;;;;53.42;30.38;;;;;;;7.06;100.00;101996.19;4978003;28;20077;-81
2021/05/28 05:36:22;;;;;;;50.95;27.73;;;;;;;7.04;100.00;101999.91;4979492;28;20070;-82
2021/05/28 05:38:47;;;;;;;48.85;29.50;;;;;;;7.02;100.00;102000.03;4978863;28;20053;-82
2021/05/28 05:41:12;;;;;;;56.20;29.95;;;;;;;7.01;100.00;102009.84;4981382;28;20034;-79
2021/05/28 05:43:38;;;;;;;52.25;28.08;;;;;;;6.96;100.00;102006.69;4973359;28;20799;-79
2021/05/28 05:46:03;;;;;;;48.15;28.10;;;;;;;6.96;100.00;102004.00;4980913;28;20042;-81
2021/05/28 05:48:35;;;;;;;64.07;35.65;;;;;;;7.18;100.00;102018.44;4972339;28;20082;-80
2021/05/28 05:51:01;;;;;;;51.70;31.33;;;;;;;7.20;100.00;102011.19;4965729;28;20133;-79
2021/05/28 05:53:28;;;;;;;53.13;30.95;;;;;;;7.35;100.00;102012.72;4968950;28;20493;-79
2021/05/28 05:55:53;;;;;;;52.28;30.80;;;;;;;7.42;100.00;102022.00;4980798;28;20046;-81
2021/05/28 05:58:19;;;;;;;52.30;30.92;;;;;;;7.49;100.00;102021.53;4961680;28;20046;-78
2021/05/28 06:00:44;;;;;;;54.78;31.85;;;;;;;7.53;100.00;102023.00;4966975;28;20049;-83
2021/05/28 06:03:11;;;;;;;48.47;29.73;;;;;;;7.42;100.00;102026.47;4978411;28;20054;-84
2021/05/28 06:05:37;;;;;;;54.80;31.80;;;;;;;7.40;100.00;102029.25;4982571;28;20050;-83
2021/05/28 06:08:05;;;;;;;45.83;28.90;;;;;;;7.29;100.00;102036.34;4983853;28;20109;-81
2021/05/28 06:10:30;;;;;;;51.88;31.55;;;;;;;7.30;100.00;102038.06;4990316;28;20048;-80
2021/05/28 06:13:08;;;;;;;48.42;28.90;;;;;;;7.29;100.00;102033.69;4984700;28;20068;-84
2021/05/28 06:15:35;;;;;;;47.45;30.05;;;;;;;7.40;100.00;102039.09;4985370;28;20102;-80
2021/05/28 06:18:02;;;;;;;45.78;28.30;;;;;;;7.44;100.00;102033.41;4982922;28;20045;-82
2021/05/28 06:20:28;;;;;;;40.33;26.08;;;;;;;7.41;100.00;102038.97;4967314;28;20042;-81
2021/05/28 06:22:53;;;;;;;39.78;25.17;;;;;;;7.37;100.00;102039.31;4983564;28;20129;-81
2021/05/28 06:25:19;;;;;;;38.35;25.15;;;;;;;7.37;100.00;102048.19;4984168;28;20133;-81
2021/05/28 06:27:44;;;;;;;39.33;25.33;;;;;;;7.29;100.00;102047.88;4983661;28;20486;-79
2021/05/28 06:30:11;;;;;;;37.70;22.80;;;;;;;7.12;100.00;102043.78;4985016;28;20069;-80
2021/05/28 06:32:36;;;;;;;37.78;23.75;;;;;;;7.15;100.00;102054.22;4959515;28;20042;-83
2021/05/28 06:35:02;;;;;;;29.83;19.35;;;;;;;7.08;100.00;102050.31;4947530;28;20137;-82
2021/05/28 06:37:28;;;;;;;30.45;20.58;;;;;;;7.16;100.00;102053.28;4984274;28;20038;-80
2021/05/28 06:40:05;;;;;;;30.48;21.30;;;;;;;7.18;100.00;102055.81;4980639;28;20458;-80
2021/05/28 06:42:31;;;;;;;28.42;20.80;;;;;;;7.19;100.00;102050.38;4981255;28;20563;-84
2021/05/28 06:44:56;;;;;;;29.38;20.55;;;;;;;7.06;100.00;102052.22;4978449;28;20125;-81
2021/05/28 06:47:22;;;;;;;31.48;20.95;;;;;;;7.20;100.00;102051.25;4989547;28;20057;-83
2021/05/28 06:49:48;;;;;;;29.10;20.65;;;;;;;7.26;100.00;102060.63;4975713;28;20027;-81
2021/05/28 06:52:15;;;;;;;28.83;20.80;;;;;;;7.31;100.00;102064.66;4966220;28;20060;-81
2021/05/28 06:54:41;;;;;;;27.83;20.52;;;;;;;7.48;100.00;102063.44;4966637;28;20595;-78
2021/05/28 06:57:07;;;;;;;27.52;19.23;;;;;;;7.39;100.00;102053.41;4966004;28;20051;-81
2021/05/28 06:59:33;;;;;;;28.17;20.10;;;;;;;7.49;100.00;102056.25;4983419;28;20077;-83
2021/05/28 07:01:59;;;;;;;25.92;19.58;;;;;;;7.42;100.00;102059.38;4978849;28;20035;-79
2021/05/28 07:04:25;;;;;;;30.40;21.30;;;;;;;7.50;100.00;102071.31;4973997;28;20050;-80
2021/05/28 07:06:50;;;;;;;25.02;19.30;;;;;;;7.53;100.00;102071.06;4978533;28;20561;-78
2021/05/28 07:09:16;;;;;;;25.25;18.08;;;;;;;7.69;100.00;102072.50;4984607;28;20486;-80
2021/05/28 07:11:42;;;;;;;27.60;20.23;;;;;;;7.84;100.00;102075.84;4962921;28;20070;-79
2021/05/28 07:14:09;;;;;;;24.33;19.05;;;;;;;7.83;100.00;102070.63;4975800;28;20047;-84
2021/05/28 07:16:34;;;;;;;26.02;19.02;;;;;;;7.87;100.00;102074.75;4980481;28;20046;-78
2021/05/28 07:19:00;;;;;;;24.63;18.08;;;;;;;7.90;100.00;102086.06;4972414;28;20494;-78
2021/05/28 07:21:31;;;;;;;25.13;19.48;;;;;;;7.93;100.00;102078.81;4986219;28;20042;-79
2021/05/28 07:23:58;;;;;;;26.27;19.17;;;;;;;7.79;100.00;102083.34;4988190;28;20049;-84
2021/05/28 07:26:24;;;;;;;23.90;17.15;;;;;;;7.81;100.00;102075.22;4960132;28;20061;-80
2021/05/28 07:28:50;;;;;;;23.65;16.77;;;;;;;7.85;100.00;102079.38;4978600;28;20403;-82
2021/05/28 07:31:16;;;;;;;26.25;19.38;;;;;;;7.95;100.00;102074.19;4985699;28;20034;-79
2021/05/28 07:33:44;;;;;;;24.35;16.02;;;;;;;7.77;100.00;102081.75;4969333;28;20050;-81
2021/05/28 07:36:09;;;;;;;25.40;19.30;;;;;;;7.90;100.00;102079.88;4964784;28;20130;-78
2021/05/28 07:38:36;;;;;;;25.77;18.50;;;;;;;8.00;100.00;102086.25;4982632;28;20390;-78
2021/05/28 07:41:03;;;;;;;22.50;16.30;;;;;;;8.07;100.00;102083.97;4971630;28;20522;-84
2021/05/28 07:43:28;;;;;;;23.88;16.90;;;;;;;7.95;100.00;102084.88;4969160;28;20046;-84
2021/05/28 07:45:54;;;;;;;22.17;17.33;;;;;;;8.13;100.00;102088.84;4977321;28;20055;-83
2021/05/28 07:48:21;;;;;;;22.90;18.70;;;;;;;8.22;100.00;102088.13;4986015;28;20053;-82
2021/05/28 07:50:48;;;;;;;25.33;17.95;;;;;;;8.35;100.00;102091.56;4984833;28;20042;-79
2021/05/28 07:53:25;;;;;;;19.35;14.60;;;;;;;8.12;100.00;102089.81;4971365;28;20058;-80
2021/05/28 07:55:51;;;;;;;21.27;17.38;;;;;;;8.23;100.00;102092.53;4987874;28;20049;-81
2021/05/28 07:58:18;;;;;;;22.13;16.25;;;;;;;8.40;100.00;102090.38;4984592;28;20058;-80
2021/05/28 08:00:44;;;;;;;22.92;17.23;;;;;;;8.40;100.00;102093.06;4978509;28;20058;-85
2021/05/28 08:03:09;;;;;;;25.38;18.83;;;;;;;8.50;100.00;102086.03;4962328;28;20070;-83
2021/05/28 08:05:37;;;;;;;22.65;16.80;;;;;;;8.53;100.00;102094.66;4959713;28;20094;-82
2021/05/28 08:08:04;;;;;;;22.38;17.05;;;;;;;8.53;100.00;102091.16;4979867;28;20092;-81
2021/05/28 08:10:30;;;;;;;25.35;17.52;;;;;;;8.65;100.00;102106.25;4980156;28;20078;-81
2021/05/28 08:12:57;;;;;;;20.25;16.73;;;;;;;8.55;100.00;102092.75;4943989;28;20034;-81
2021/05/28 08:15:23;;;;;;;21.33;17.17;;;;;;;8.67;100.00;102096.28;4986505;28;20038;-82
2021/05/28 08:17:53;;;;;;;20.63;16.13;;;;;;;8.61;100.00;102096.75;4959085;28;20046;-83
2021/05/28 08:20:19;;;;;;;21.13;15.80;;;;;;;8.55;100.00;102102.59;4964497;28;20046;-81
2021/05/28 08:22:45;;;;;;;22.95;17.38;;;;;;;8.61;100.00;102094.09;4982458;28;20062;-82
2021/05/28 08:25:13;;;;;;;22.42;17.40;;;;;;;8.75;100.00;102093.84;4981605;28;20054;-80
2021/05/28 08:27:39;;;;;;;21.83;17.52;;;;;;;8.95;100.00;102096.78;4979576;28;20057;-82
2021/05/28 08:30:05;;;;;;;21.60;15.70;;;;;;;9.15;100.00;102097.84;4981901;28;20050;-79
2021/05/28 08:32:31;;;;;;;19.02;15.70;;;;;;;9.15;100.00;102105.88;4982578;28;20042;-79
2021/05/28 08:34:57;;;;;;;17.58;15.23;;;;;;;9.24;100.00;102099.81;4980526;28;20105;-81
2021/05/28 08:37:23;;;;;;;20.00;15.35;;;;;;;9.30;100.00;102101.16;4943462;28;20507;-81
2021/05/28 08:39:49;;;;;;;17.77;13.98;;;;;;;9.26;100.00;102103.19;4974994;28;20038;-80
2021/05/28 08:42:20;;;;;;;16.58;13.85;;;;;;;9.32;100.00;102092.00;4975224;28;20061;-83
2021/05/28 08:44:48;;;;;;;16.67;13.60;;;;;;;9.55;100.00;102092.81;4979567;28;20085;-81
2021/05/28 08:47:18;;;;;;;15.00;11.40;;;;;;;9.40;100.00;102094.91;4978975;28;20538;-84
2021/05/28 08:49:53;;;;;;;16.25;13.30;;;;;;;9.69;100.00;102095.19;4977311;28;20510;-82
2021/05/28 08:52:20;;;;;;;15.90;12.73;;;;;;;9.71;100.00;102097.75;4949802;28;20058;-80
2021/05/28 08:54:49;;;;;;;15.52;12.55;;;;;;;9.89;100.00;102100.72;4981951;28;20097;-82
2021/05/28 08:57:14;;;;;;;;;;;;;;;10.05;100.00;102095.78;4982305;28;20530;-83
2021/05/28 08:59:42;;;;;;;14.45;12.02;;;;;;;10.10;100.00;102090.91;4968535;28;20013;-79
2021/05/28 09:02:31;;;;;;;14.55;11.70;;;;;;;10.27;100.00;102089.50;4952934;28;20129;-80
2021/05/28 09:05:19;;;;;;;15.40;11.88;;;;;;;10.23;100.00;102089.84;4958887;28;20042;-81
2021/05/28 09:07:59;;;;;;;13.65;11.45;;;;;;;10.16;98.61;102076.97;4964740;28;20050;-84
2021/05/28 09:10:53;;;;;;;14.45;11.48;;;;;;;10.31;100.00;102074.81;4959992;28;20047;-83
2021/05/28 09:13:26;;;;;;;12.95;11.60;;;;;;;10.51;100.00;102083.00;4987918;28;20709;-78
2021/05/28 09:16:11;;;;;;;12.63;11.30;;;;;;;10.73;100.00;102071.22;4984512;28;20045;-80
2021/05/28 09:18:52;;;;;;;13.98;11.75;;;;;;;10.89;99.85;102068.91;4964078;28;20096;-79
2021/05/28 09:21:35;;;;;;;14.95;11.50;;;;;;;10.96;99.30;102072.78;4987066;28;20050;-83
2021/05/28 09:24:06;;;;;;;14.43;12.05;;;;;;;11.13;99.58;102070.41;4979201;28;20082;-82
2021/05/28 09:26:35;;;;;;;14.43;11.80;;;;;;;11.24;100.00;102073.00;4961257;28;20042;-82
2021/05/28 09:29:01;;;;;;;14.50;12.20;;;;;;;11.29;98.48;102076.13;4981221;28;20471;-79
2021/05/28 09:31:35;;;;;;;13.65;11.07;;;;;;;11.44;97.33;102069.34;4980535;28;20043;-82
2021/05/28 09:34:01;;;;;;;11.32;10.13;;;;;;;11.63;97.25;102073.06;4975987;28;20042;-82
2021/05/28 09:36:33;;;;;;;11.50;10.10;;;;;;;11.72;96.15;102073.06;4986706;28;20034;-78
2021/05/28 09:39:13;;;;;;;14.55;12.18;;;;;;;11.89;97.44;102070.72;4986828;28;20166;-80
2021/05/28 09:41:49;;;;;;;13.57;11.15;;;;;;;12.00;97.08;102070.56;4984402;28;20089;-82
2021/05/28 09:44:26;;;;;;;13.10;11.15;;;;;;;12.10;97.43;102075.94;4922293;28;20470;-84
2021/05/28 09:47:13;;;;;;;11.82;10.13;;;;;;;12.12;94.44;102073.94;4977589;28;20210;-81
2021/05/28 09:49:43;;;;;;;11.63;10.40;;;;;;;12.28;94.99;102067.97;4971983;28;20038;-81
2021/05/28 09:52:23;;;;;;;10.75;9.48;;;;;;;12.23;92.48;102059.47;4990301;28;20046;-81
2021/05/28 09:54:59;;;;;;;12.48;9.60;;;;;;;12.27;93.14;102067.13;4981755;28;20045;-83
2021/05/28 09:57:45;;;;;;;10.85;9.63;;;;;;;12.40;93.13;102062.28;4982096;28;20041;-82
2021/05/28 10:00:28;;;;;;;11.60;9.25;;;;;;;12.36;91.46;102055.47;4986331;28;20046;-82
2021/05/28 10:03:19;;;;;;;10.23;9.10;;;;;;;12.54;93.11;102047.50;4957510;28;20725;-83
2021/05/28 10:05:47;;;;;;;10.23;8.82;;;;;;;12.63;91.78;102043.09;4978735;28;20054;-78
2021/05/28 10:08:15;;;;;;;10.35;8.20;;;;;;;12.60;89.83;102046.06;4978511;28;20054;-86
2021/05/28 10:10:42;;;;;;;9.60;8.43;;;;;;;12.75;90.70;102043.75;4990645;28;20123;-82
2021/05/28 10:13:11;;;;;;;10.38;8.30;;;;;;;12.78;89.51;102046.16;4976321;28;20180;-82
2021/05/28 10:15:39;;;;;;;9.10;8.20;;;;;;;12.90;88.76;102058.44;4975285;28;20113;-80
2021/05/28 10:18:06;;;;;;;9.88;8.88;;;;;;;12.96;88.24;102054.28;4982066;28;20031;-81
2021/05/28 10:20:34;;;;;;;12.18;8.38;;;;;;;12.84;87.86;102056.34;4970162;28;20034;-83
2021/05/28 10:22:59;;;;;;;9.13;8.07;;;;;;;13.17;90.52;102057.56;4964538;28;20070;-81
2021/05/28 10:25:25;;;;;;;8.68;7.35;;;;;;;13.30;85.65;102060.81;4966362;28;20073;-82
2021/05/28 10:27:59;;;;;;;9.57;7.60;;;;;;;13.40;86.86;102054.50;4978318;28;20451;-83
2021/05/28 10:30:35;;;;;;;8.57;6.93;;;;;;;13.58;87.01;102046.41;4949847;28;20047;-82
2021/05/28 10:33:18;;;;;;;7.65;6.65;;;;;;;13.57;84.53;102045.56;4980000;28;20034;-81
2021/05/28 10:35:49;;;;;;;6.97;6.03;;;;;;;13.70;85.15;102039.81;4980227;28;20058;-77
2021/05/28 10:38:36;;;;;;;8.50;5.45;;;;;;;13.59;78.65;102043.56;4981121;28;20495;-81
2021/05/28 10:41:04;;;;;;;5.95;5.10;;;;;;;13.68;79.35;102036.41;4981098;28;20368;-82
2021/05/28 10:43:32;;;;;;;5.55;4.43;;;;;;;13.83;78.72;102044.81;4983667;28;20421;-82
2021/05/28 10:45:58;;;;;;;6.90;4.40;;;;;;;14.00;79.65;102035.84;4982374;28;20496;-82
2021/05/28 10:48:41;;;;;;;5.63;4.20;;;;;;;13.93;74.84;102035.63;4983261;28;20085;-83
2021/05/28 10:51:22;;;;;;;4.65;3.78;;;;;;;14.01;75.25;102045.63;4987221;28;20038;-80
2021/05/28 10:53:50;;;;;;;4.20;3.47;;;;;;;14.28;73.33;102027.63;4987903;28;20054;-81
2021/05/28 10:56:22;;;;;;;4.63;3.37;;;;;;;14.27;73.07;102031.31;4988628;28;20097;-77
2021/05/28 10:59:11;;;;;;;5.22;3.30;;;;;;;14.36;70.60;102033.06;4953589;28;20133;-80
2021/05/28 11:01:43;;;;;;;3.90;3.15;;;;;;;14.46;73.66;102036.50;4985024;28;20129;-80
2021/05/28 11:04:12;;;;;;;4.65;3.03;;;;;;;14.75;73.81;102030.78;4975740;28;20855;-80
2021/05/28 11:06:59;;;;;;;5.00;2.85;;;;;;;14.87;72.97;102028.63;4966115;28;20039;-83
2021/05/28 11:09:50;;;;;;;4.78;3.35;;;;;;;14.85;74.56;102022.56;4969785;28;20069;-78
2021/05/28 11:12:25;;;;;;;5.10;3.38;;;;;;;15.03;73.20;102017.88;4962537;28;20042;-77
2021/05/28 11:15:07;;;;;;;5.32;3.20;;;;;;;15.16;71.71;102027.38;4988153;28;20046;-78
2021/05/28 11:17:51;;;;;;;3.83;3.17;;;;;;;15.20;71.06;102023.34;4985692;28;20447;-80